createdAt,value
2018-12-09T00:52:42.887Z,9.80
2018-12-09T00:55:13.715Z,9.80
2018-12-09T00:57:45.181Z,9.80
2018-12-09T01:00:17.276Z,9.80
2018-12-09T01:02:48.274Z,9.90
2018-12-09T01:05:20.593Z,9.90
2018-12-09T01:07:52.051Z,9.90
2018-12-09T01:10:24.580Z,9.90
2018-12-09T01:12:55.806Z,10.00
2018-12-09T01:15:26.932Z,10.10
2018-12-09T01:17:59.423Z,10.10
2018-12-09T01:20:30.220Z,10.00
2018-12-09T01:23:01.861Z,10.10
2018-12-09T01:25:36.063Z,10.10
2018-12-09T01:28:06.582Z,10.10
2018-12-09T01:34:02.714Z,10.20
2018-12-09T01:36:41.782Z,10.20
2018-12-09T01:39:42.605Z,10.30
2018-12-09T01:42:20.154Z,10.30
2018-12-09T01:45:00.762Z,10.30
2018-12-09T01:47:40.081Z,10.30
2018-12-09T01:50:11.632Z,10.30
2018-12-09T01:52:45.152Z,10.30
2018-12-09T01:55:16.511Z,10.20
2018-12-09T01:57:47.339Z,10.30
2018-12-09T02:00:18.309Z,10.30
2018-12-09T02:02:49.722Z,10.30
2018-12-09T02:05:20.945Z,10.40
2018-12-09T02:07:52.497Z,10.40
2018-12-09T02:10:23.268Z,10.30
2018-12-09T02:12:55.953Z,10.20
2018-12-09T02:15:29.290Z,10.10
2018-12-09T02:18:11.106Z,10.00
2018-12-09T02:52:20.773Z,8.60
2018-12-09T02:54:52.130Z,8.50
2018-12-09T02:57:23.315Z,8.50
2018-12-09T02:59:54.233Z,8.50
2018-12-09T03:02:25.768Z,8.50
2018-12-09T03:04:57.790Z,8.60
2018-12-09T03:07:29.304Z,8.60
2018-12-09T03:10:00.082Z,8.50
2018-12-09T03:12:30.576Z,8.40
2018-12-09T03:15:01.783Z,8.30
2018-12-09T03:17:34.647Z,8.20
2018-12-09T03:20:05.911Z,8.10
2018-12-09T03:22:36.417Z,8.10
2018-12-09T03:25:08.289Z,8.10
2018-12-09T03:27:39.238Z,8.20
2018-12-09T03:30:13.955Z,8.30
2018-12-09T03:32:44.915Z,8.30
2018-12-09T03:35:15.363Z,8.30
2018-12-09T03:37:46.249Z,8.50
2018-12-09T03:40:17.056Z,8.40
2018-12-09T03:42:48.142Z,8.30
2018-12-09T03:45:19.311Z,8.20
2018-12-09T03:47:50.349Z,8.10
2018-12-09T03:50:21.882Z,8.30
2018-12-09T03:52:53.018Z,8.30
2018-12-09T03:55:24.237Z,8.50
2018-12-09T03:57:55.110Z,8.40
2018-12-09T04:00:27.403Z,8.40
2018-12-09T04:02:58.432Z,8.40
2018-12-09T04:05:29.267Z,8.50
2018-12-09T04:08:00.609Z,8.60
2018-12-09T04:10:31.473Z,8.90
2018-12-09T04:13:03.252Z,8.80
2018-12-09T04:15:39.268Z,8.80
2018-12-09T04:21:04.177Z,8.70
2018-12-09T04:23:35.636Z,8.70
2018-12-09T04:41:57.920Z,8.40
2018-12-09T04:47:40.539Z,8.40
2018-12-09T04:50:15.553Z,8.40
2018-12-09T04:52:47.317Z,8.40
2018-12-09T04:55:22.628Z,8.30
2018-12-09T04:57:53.796Z,8.40
2018-12-09T05:00:48.442Z,8.40
2018-12-09T05:03:23.116Z,8.40
2018-12-09T05:05:54.687Z,8.30
2018-12-09T05:08:26.245Z,8.30
2018-12-09T05:10:57.788Z,8.30
2018-12-09T05:13:30.788Z,8.30
2018-12-09T05:16:01.671Z,8.20
2018-12-09T05:18:32.644Z,8.20
2018-12-09T05:21:06.268Z,8.20
2018-12-09T05:23:37.158Z,8.10
2018-12-09T05:26:07.766Z,8.10
2018-12-09T05:28:38.564Z,8.10
2018-12-09T05:31:09.370Z,8.10
2018-12-09T05:33:40.933Z,8.10
2018-12-09T05:36:12.344Z,8.10
2018-12-09T05:38:43.340Z,8.10
2018-12-09T05:41:14.156Z,8.10
2018-12-09T05:43:47.859Z,8.20
2018-12-09T05:46:18.770Z,8.30
2018-12-09T05:48:49.821Z,8.30
2018-12-09T05:51:21.195Z,8.30
2018-12-09T05:53:51.601Z,8.30
2018-12-09T05:56:22.038Z,8.50
2018-12-09T05:58:53.092Z,8.40
2018-12-09T06:01:23.587Z,8.50
2018-12-09T06:03:54.638Z,8.60
2018-12-09T06:06:25.233Z,8.60
2018-12-09T06:08:56.492Z,8.60
2018-12-09T06:11:27.049Z,8.60
2018-12-09T06:13:58.219Z,8.60
2018-12-09T06:16:28.945Z,8.60
2018-12-09T06:19:06.204Z,8.60
2018-12-09T06:21:37.738Z,8.60
2018-12-09T06:24:08.453Z,8.70
2018-12-09T06:26:39.404Z,8.70
2018-12-09T06:29:10.588Z,8.70
2018-12-09T06:31:41.648Z,8.70
2018-12-09T06:34:12.460Z,8.70
2018-12-09T06:36:43.095Z,8.80
2018-12-09T06:39:14.673Z,8.70
2018-12-09T06:41:45.482Z,8.80
2018-12-09T06:44:16.315Z,8.80
2018-12-09T06:46:48.101Z,8.80
2018-12-09T06:49:19.737Z,8.80
2018-12-09T06:51:50.670Z,8.80
2018-12-09T06:54:22.737Z,8.80
2018-12-09T06:56:55.624Z,8.80
2018-12-09T06:59:29.628Z,8.80
2018-12-09T07:02:04.324Z,8.80
2018-12-09T07:04:37.244Z,8.80
2018-12-09T07:07:08.649Z,8.80
2018-12-09T07:09:41.635Z,8.80
2018-12-09T07:12:16.742Z,8.80
2018-12-09T07:14:48.575Z,8.90
2018-12-09T07:17:21.502Z,8.90
2018-12-09T07:19:55.367Z,8.90
2018-12-09T07:25:36.764Z,8.80
2018-12-09T07:28:10.342Z,8.70
2018-12-09T07:30:51.713Z,8.80
2018-12-09T07:33:25.311Z,8.80
2018-12-09T07:35:55.791Z,8.80
2018-12-09T07:38:29.629Z,8.80
2018-12-09T07:41:00.964Z,8.80
2018-12-09T07:43:32.212Z,8.90
2018-12-09T07:46:03.386Z,8.90
2018-12-09T07:48:46.141Z,8.90
2018-12-09T07:51:17.143Z,8.90
2018-12-09T07:54:16.112Z,8.90
2018-12-09T09:42:55.994Z,8.90
2018-12-09T09:45:26.604Z,8.80
2018-12-09T09:48:00.987Z,8.70
2018-12-09T09:50:33.007Z,8.70
2018-12-09T09:53:20.450Z,8.60
2018-12-09T09:55:54.047Z,8.60
2018-12-09T09:58:31.534Z,8.50
2018-12-09T10:01:05.252Z,8.50
2018-12-09T10:03:38.108Z,8.50
2018-12-09T10:06:13.373Z,8.50
2018-12-09T10:18:13.611Z,8.50
2018-12-09T10:20:51.457Z,8.50
2018-12-09T10:23:30.834Z,8.50
2018-12-09T10:26:09.617Z,8.50
2018-12-09T10:28:46.289Z,8.40
2018-12-09T10:31:16.848Z,8.40
2018-12-09T10:33:49.525Z,8.30
2018-12-09T10:36:20.139Z,8.30
2018-12-09T10:38:54.999Z,8.20
2018-12-09T10:41:26.035Z,8.10
2018-12-09T10:43:57.464Z,8.10
2018-12-09T10:46:28.488Z,8.10
2018-12-09T10:52:07.438Z,8.10
2018-12-09T11:01:34.594Z,8.10
2018-12-09T11:04:13.255Z,8.10
2018-12-09T11:06:49.719Z,8.10
2018-12-09T11:09:26.142Z,8.10
2018-12-09T11:11:58.380Z,8.00
2018-12-09T11:14:29.125Z,8.00
2018-12-09T11:16:59.790Z,7.90
2018-12-09T11:19:30.563Z,7.90
2018-12-09T11:22:01.090Z,7.80
2018-12-09T11:24:40.346Z,7.90
2018-12-09T11:27:13.712Z,7.80
2018-12-09T11:49:40.090Z,7.80
2018-12-09T11:52:10.778Z,7.80
2018-12-09T11:57:40.599Z,7.80
2018-12-09T12:00:30.791Z,7.80
2018-12-09T12:03:10.498Z,7.80
2018-12-09T12:05:41.033Z,7.90
2018-12-09T12:08:11.706Z,7.90
2018-12-09T12:10:49.775Z,7.90
2018-12-09T12:13:20.504Z,8.00
2018-12-09T12:15:50.889Z,8.00
2018-12-09T12:18:29.785Z,8.00
2018-12-09T12:21:00.595Z,8.00
2018-12-09T12:23:31.302Z,8.00
2018-12-09T12:26:09.080Z,8.10
2018-12-09T12:29:47.151Z,8.20
2018-12-09T12:32:20.547Z,8.20
2018-12-09T12:34:51.224Z,8.20
2018-12-09T12:37:29.744Z,8.20
2018-12-09T12:40:01.213Z,8.30
2018-12-09T12:42:38.609Z,8.30
2018-12-09T12:45:10.182Z,8.30
2018-12-09T13:44:53.767Z,7.70
2018-12-09T14:04:07.603Z,7.70
2018-12-09T14:06:38.340Z,7.70
2018-12-09T14:09:09.611Z,7.60
2018-12-09T14:14:15.783Z,7.50
2018-12-09T14:17:11.159Z,7.60
2018-12-09T14:19:41.752Z,7.50
2018-12-09T14:22:16.160Z,7.60
2018-12-09T14:24:47.697Z,7.60
2018-12-09T14:27:21.259Z,7.60
2018-12-09T14:29:53.923Z,7.60
2018-12-09T14:32:26.357Z,7.60
2018-12-09T14:34:59.461Z,7.70
2018-12-09T14:37:30.817Z,7.70
2018-12-09T14:40:10.791Z,7.70
2018-12-09T14:42:51.192Z,7.70
2018-12-09T14:45:23.694Z,7.70
2018-12-09T14:47:54.227Z,7.80
2018-12-09T14:50:30.285Z,7.70
2018-12-09T14:53:05.301Z,7.80
2018-12-09T14:55:35.842Z,7.70
2018-12-09T14:58:07.486Z,7.70
2018-12-09T15:03:41.758Z,7.80
2018-12-09T15:06:35.877Z,7.80
2018-12-09T15:09:10.697Z,7.80
2018-12-09T15:11:48.421Z,7.80
2018-12-09T15:30:44.857Z,7.60
2018-12-09T15:33:15.848Z,7.60
2018-12-09T15:35:46.765Z,7.60
2018-12-09T15:38:17.615Z,7.50
2018-12-09T15:40:48.956Z,7.50
2018-12-09T15:43:22.958Z,7.60
2018-12-09T15:45:54.012Z,7.50
2018-12-09T15:48:24.919Z,7.50
2018-12-09T15:50:56.009Z,7.50
2018-12-09T15:53:26.709Z,7.50
2018-12-09T15:55:57.518Z,7.50
2018-12-09T15:58:28.462Z,7.50
2018-12-09T16:00:59.284Z,7.50
2018-12-09T16:03:30.232Z,7.50
2018-12-09T16:06:01.157Z,7.50
2018-12-09T16:08:31.915Z,7.50
2018-12-09T16:11:03.155Z,7.50
2018-12-09T16:13:35.765Z,7.50
2018-12-09T16:16:07.006Z,7.50
2018-12-09T16:18:38.483Z,7.50
2018-12-09T16:21:10.510Z,7.50
2018-12-09T16:23:43.380Z,7.50
2018-12-09T16:26:14.216Z,7.50
2018-12-09T16:28:46.402Z,7.60
2018-12-09T16:31:18.333Z,7.50
2018-12-09T16:33:57.657Z,7.60
2018-12-09T16:36:30.061Z,7.50
2018-12-09T16:39:01.716Z,7.50
2018-12-09T16:41:37.967Z,7.60
2018-12-09T16:44:18.278Z,7.60
2018-12-09T16:46:49.715Z,7.60
2018-12-09T16:49:20.736Z,7.60
2018-12-09T16:51:51.907Z,7.70
2018-12-09T16:54:24.963Z,7.80
2018-12-09T17:00:07.179Z,7.80
2018-12-09T17:05:48.826Z,7.90
2018-12-09T17:08:24.581Z,7.90
2018-12-09T17:13:41.917Z,7.90
2018-12-09T17:16:17.058Z,7.90
2018-12-09T17:18:48.236Z,7.90
2018-12-09T17:21:19.290Z,8.00
2018-12-09T17:23:51.942Z,8.00
2018-12-09T17:26:23.248Z,8.00
2018-12-09T17:28:55.064Z,8.00
2018-12-09T17:31:26.185Z,8.00
2018-12-09T17:34:05.043Z,8.00
2018-12-09T17:36:36.629Z,8.00
2018-12-09T17:39:09.175Z,8.00
2018-12-09T17:41:43.883Z,8.00
2018-12-09T17:44:15.067Z,7.90
2018-12-09T17:46:47.085Z,7.90
2018-12-09T17:49:17.950Z,7.90
2018-12-09T17:51:52.254Z,7.90
2018-12-09T17:54:25.100Z,7.80
2018-12-09T17:56:55.966Z,7.80
2018-12-09T17:59:30.831Z,7.80
2018-12-09T18:02:01.793Z,7.80
2018-12-09T18:04:32.890Z,7.90
2018-12-09T18:07:07.575Z,7.80
2018-12-09T18:09:38.419Z,7.80
2018-12-09T18:12:10.720Z,7.80
2018-12-09T18:14:42.696Z,7.80
2018-12-09T18:17:13.512Z,7.80
2018-12-09T18:19:44.323Z,7.80
2018-12-09T18:22:15.263Z,7.80
2018-12-09T18:24:48.355Z,7.80
2018-12-09T18:27:19.378Z,7.80
2018-12-09T18:29:56.509Z,7.80
2018-12-09T18:32:27.578Z,7.80
2018-12-09T18:35:01.519Z,7.80
2018-12-09T18:37:38.952Z,7.80
2018-12-09T18:40:10.547Z,7.80
2018-12-09T18:42:43.618Z,7.90
2018-12-09T18:45:22.091Z,7.90
2018-12-09T18:48:00.178Z,7.90
2018-12-09T18:50:31.795Z,7.90
2018-12-09T18:53:02.698Z,7.80
2018-12-09T18:55:34.147Z,7.90
2018-12-09T18:58:05.762Z,7.90
2018-12-09T19:00:38.118Z,7.90
2018-12-09T19:03:09.748Z,7.90
2018-12-09T19:05:41.214Z,7.90
2018-12-09T19:08:11.878Z,7.80
2018-12-09T19:10:42.507Z,7.80
2018-12-09T19:13:13.216Z,7.80
2018-12-09T19:15:43.955Z,7.80
2018-12-09T19:18:15.675Z,7.80
2018-12-09T19:20:47.659Z,7.80
2018-12-09T19:23:18.254Z,7.80
2018-12-09T19:25:49.130Z,7.80
2018-12-09T19:28:20.411Z,7.70
2018-12-09T19:30:53.350Z,7.70
2018-12-09T19:33:24.317Z,7.70
2018-12-09T19:35:55.272Z,7.70
2018-12-09T19:38:26.634Z,7.70
2018-12-09T19:40:58.570Z,7.70
2018-12-09T19:43:29.659Z,7.60
2018-12-09T19:46:00.493Z,7.60
2018-12-09T19:48:31.412Z,7.60
2018-12-09T19:51:02.035Z,7.60
2018-12-09T19:53:32.718Z,7.50
2018-12-09T19:56:04.445Z,7.50
2018-12-09T19:58:35.255Z,7.50
2018-12-09T20:01:06.653Z,7.50
2018-12-09T20:03:37.130Z,7.50
2018-12-09T20:06:07.847Z,7.50
2018-12-09T20:08:38.497Z,7.60
2018-12-09T20:11:09.088Z,7.60
2018-12-09T20:13:40.167Z,7.50
2018-12-09T20:16:11.823Z,7.60
2018-12-09T20:18:42.559Z,7.70
2018-12-09T20:21:13.546Z,7.60
2018-12-09T20:23:44.243Z,7.60
2018-12-09T20:26:14.975Z,7.50
2018-12-09T20:28:45.826Z,7.50
2018-12-09T20:31:16.368Z,7.50
2018-12-09T20:33:47.545Z,7.50
2018-12-09T20:36:18.156Z,7.50
2018-12-09T20:38:48.770Z,7.60
2018-12-09T20:41:19.654Z,7.50
2018-12-09T20:43:50.566Z,7.50
2018-12-09T20:46:21.132Z,7.60
2018-12-09T20:48:52.429Z,7.50
2018-12-09T20:51:28.182Z,7.60
2018-12-09T20:53:59.242Z,7.60
2018-12-09T20:56:30.442Z,7.60
2018-12-09T20:59:02.743Z,7.70
2018-12-09T21:01:33.509Z,7.70
2018-12-09T21:04:04.779Z,7.70
2018-12-09T21:06:36.021Z,7.70
2018-12-09T21:09:07.987Z,7.80
2018-12-09T21:11:39.364Z,7.70
2018-12-09T21:14:11.491Z,7.80
2018-12-09T21:16:42.705Z,7.70
2018-12-09T21:19:13.771Z,7.60
2018-12-09T21:21:46.022Z,7.60
2018-12-09T21:24:25.724Z,7.60
2018-12-09T21:26:53.467Z,7.60
2018-12-09T21:29:24.989Z,7.60
2018-12-09T21:31:55.841Z,7.50
2018-12-09T21:34:27.116Z,7.50
2018-12-09T21:36:59.272Z,7.50
2018-12-09T21:39:30.204Z,7.50
2018-12-09T21:42:01.224Z,7.50
2018-12-09T21:44:33.064Z,7.50
2018-12-09T21:47:04.896Z,7.50
2018-12-09T21:49:35.700Z,7.50
2018-12-09T21:52:07.111Z,7.50
2018-12-09T21:54:37.978Z,7.60
2018-12-09T22:13:12.180Z,7.50
2018-12-09T22:15:43.808Z,7.50
2018-12-09T22:18:15.511Z,7.50
2018-12-09T22:20:46.562Z,7.50
2018-12-09T22:23:18.158Z,7.50
2018-12-09T22:25:49.368Z,7.50
2018-12-09T22:28:37.398Z,7.50
2018-12-09T22:31:11.446Z,7.50
2018-12-09T22:33:55.453Z,7.50
2018-12-09T22:36:28.424Z,7.40
2018-12-09T22:38:59.303Z,7.40
2018-12-09T22:41:31.893Z,7.40
2018-12-09T22:44:11.121Z,7.40
2018-12-09T22:46:42.628Z,7.50
2018-12-09T22:49:16.146Z,7.40
2018-12-09T22:51:47.936Z,7.50
2018-12-09T22:54:19.012Z,7.50
2018-12-09T22:56:50.824Z,7.50
2018-12-09T22:59:23.422Z,7.40
2018-12-09T23:02:00.267Z,7.40
2018-12-09T23:04:30.797Z,7.40
2018-12-09T23:07:07.009Z,7.40
2018-12-09T23:09:37.593Z,7.40
2018-12-09T23:12:09.285Z,7.40
2018-12-09T23:14:40.251Z,7.50
2018-12-09T23:17:12.584Z,7.50
2018-12-09T23:19:43.259Z,7.50
2018-12-09T23:22:14.057Z,7.50
2018-12-09T23:24:44.839Z,7.50
2018-12-09T23:30:03.187Z,7.50
2018-12-09T23:32:33.909Z,7.50
2018-12-09T23:35:06.441Z,7.50
2018-12-09T23:37:37.142Z,7.50
2018-12-09T23:40:08.799Z,7.50
2018-12-09T23:42:40.469Z,7.50
2018-12-09T23:45:12.225Z,7.50
2018-12-09T23:47:44.542Z,7.50
2018-12-09T23:50:16.887Z,7.50
2018-12-09T23:52:49.125Z,7.40
2018-12-09T23:55:20.610Z,7.50
2018-12-09T23:57:52.548Z,7.40
